Change the Weather History Date:

Tuesday, November 13, 2012

  Actual Average Record
Temperature  
Mean Temperature 52 °F -  
Max Temperature 62 °F 52 °F 65 °F (1982)
Min Temperature 41 °F 38 °F 14 °F (2001)
Degree Days  
Heating Degree Days 13    
Growing Degree Days 2 (Base 50)    
Moisture  
Dew Point 51 °F    
Average Humidity 93    
Maximum Humidity 100    
Minimum Humidity 73    
Precipitation  
Precipitation 0.65 in - - ()
Sea Level Pressure  
Sea Level Pressure 30.25 in    
Wind  
Wind Speed 14 mph (NW)    
Max Wind Speed 21 mph    
Max Gust Speed 34 mph    
Visibility 8 miles    
Events Rain    
Averages and records for this station are not official NWS values.
T = Trace of Precipitation, MM = Missing Value Source: NWS Daily Summary

Daily Weather History Graph

Daily Weather History Graph

Search for Another Location

Airport or City:

Trip Planner

Search our weather history database for the weather conditions in past years. The results will help you decide how hot, cold, wet, or windy it might be!

Date:

Astronomy

Nov. 13, 2012 Rise Set
Actual Time 6:29 AM EST 4:24 PM EST
Civil Twilight 5:59 AM EST 4:53 PM EST
Nautical Twilight 5:26 AM EST 5:27 PM EST
Astronomical Twilight 4:53 AM EST 5:59 PM EST
Moon 6:03 AM EST (11/13) 4:14 PM EST (11/13)
Length of Visible Light 10h 54m
Length of Day
9h 55m
Waning Crescent, 0% of the Moon is Illuminated
Nov 13
Waning Crescent
Nov 13
New
Nov 20
First Quarter
Nov 28
Full
Dec 6
Last Quarter

Hourly Weather History & Observations

Time (EST) Temp. Windchill Dew Point Humidity Pressure Visibility Wind Dir Wind Speed Gust Speed Precip Events Conditions
12:53 AM 59.0 °F - 59.0 °F 100% 30.26 in 9.0 mi South 15.0 mph 23.0 mph N/A   Clear
1:21 AM 60.8 °F - 60.8 °F 100% 30.25 in 10.0 mi South 16.1 mph - N/A   Mostly Cloudy
1:49 AM 60.8 °F - 59.0 °F 94% 30.25 in 10.0 mi South 18.4 mph 24.2 mph N/A   Overcast
1:53 AM 61.0 °F - 59.0 °F 93% 30.24 in 10.0 mi South 18.4 mph 25.3 mph N/A   Overcast
2:53 AM 60.1 °F - 57.9 °F 93% 30.23 in 10.0 mi South 16.1 mph - N/A   Overcast
3:26 AM 60.8 °F - 59.0 °F 94% 30.21 in 10.0 mi South 15.0 mph - N/A   Overcast
4:02 AM 60.8 °F - 59.0 °F 94% 30.20 in 10.0 mi South 15.0 mph 24.2 mph N/A   Scattered Clouds
4:53 AM 60.1 °F - 57.9 °F 93% 30.20 in 10.0 mi South 16.1 mph 23.0 mph N/A   Mostly Cloudy
5:53 AM 60.1 °F - 57.0 °F 90% 30.20 in 10.0 mi SSW 18.4 mph 25.3 mph N/A   Overcast
6:15 AM 60.8 °F - 57.2 °F 88% 30.20 in 10.0 mi SSW 17.3 mph - 0.01 in Rain Light Rain
6:36 AM 60.8 °F - 57.2 °F 88% 30.20 in 10.0 mi SSW 16.1 mph - 0.01 in   Mostly Cloudy
7:15 AM 60.8 °F - 57.2 °F 88% 30.20 in 10.0 mi South 18.4 mph 28.8 mph N/A   Mostly Cloudy
7:39 AM 60.8 °F - 57.2 °F 88% 30.20 in 10.0 mi South 19.6 mph 27.6 mph N/A   Overcast
7:53 AM 61.0 °F - 57.9 °F 90% 30.20 in 10.0 mi South 18.4 mph 24.2 mph N/A   Overcast
8:51 AM 60.8 °F - 59.0 °F 94% 30.20 in 2.5 mi SSW 15.0 mph 25.3 mph 0.05 in Rain Heavy Rain
8:53 AM 61.0 °F - 60.1 °F 97% 30.20 in 2.0 mi SSW 17.3 mph 25.3 mph 0.05 in Rain Heavy Rain
9:06 AM 60.8 °F - 60.8 °F 100% 30.20 in 4.0 mi SSW 17.3 mph - 0.03 in Rain Rain
9:26 AM 60.8 °F - 59.0 °F 94% 30.20 in 2.5 mi South 16.1 mph 21.9 mph 0.07 in Rain Rain
9:49 AM 62.6 °F - 60.8 °F 94% 30.19 in 9.0 mi South 16.1 mph 24.2 mph 0.14 in   Overcast
9:53 AM 62.1 °F - 61.0 °F 96% 30.19 in 7.0 mi SSW 17.3 mph 24.2 mph 0.15 in Rain Light Rain
10:47 AM 60.8 °F - 60.8 °F 100% 30.20 in 5.0 mi SW 19.6 mph 34.5 mph 0.04 in Rain Light Rain
10:53 AM 59.0 °F - 59.0 °F 100% 30.21 in 3.0 mi NW 18.4 mph 34.5 mph 0.09 in Rain Heavy Rain
10:59 AM 55.4 °F - 53.6 °F 94% 30.22 in 2.5 mi NNW 20.7 mph 27.6 mph 0.01 in Rain Rain
11:19 AM 51.8 °F - 51.8 °F 100% 30.22 in 7.0 mi NNW 18.4 mph 28.8 mph 0.08 in Rain Light Rain
11:26 AM 51.8 °F - 51.8 °F 100% 30.23 in 10.0 mi NNW 13.8 mph 24.2 mph 0.08 in Rain Light Rain
11:39 AM 51.8 °F - 51.8 °F 100% 30.21 in 5.0 mi North 12.7 mph - 0.09 in Rain Light Rain
11:53 AM 51.1 °F - 50.0 °F 96% 30.22 in 9.0 mi North 12.7 mph 20.7 mph 0.10 in Rain Light Rain
12:04 PM 51.8 °F - 51.8 °F 100% 30.22 in 6.0 mi North 11.5 mph - 0.01 in Rain Rain
12:11 PM 51.8 °F - 50.0 °F 94% 30.22 in 7.0 mi North 10.4 mph - 0.01 in Rain Light Rain
12:53 PM 52.0 °F - 51.1 °F 97% 30.21 in 10.0 mi NNE 6.9 mph - 0.01 in   Overcast
1:16 PM 51.8 °F - 51.8 °F 100% 30.20 in 10.0 mi North 8.1 mph - N/A   Overcast
1:53 PM 52.0 °F - 50.0 °F 93% 30.21 in 10.0 mi North 4.6 mph - 0.00 in Rain Light Rain
2:00 PM 51.8 °F - 50.0 °F 94% 30.21 in 4.0 mi NNW 5.8 mph - 0.01 in Rain Rain
2:10 PM 51.8 °F - 50.0 °F 94% 30.22 in 1.8 mi North 8.1 mph - 0.05 in Rain Rain
2:26 PM 51.8 °F - 50.0 °F 94% 30.23 in 3.0 mi NNW 4.6 mph - 0.08 in Rain Light Rain
2:33 PM 51.8 °F - 50.0 °F 94% 30.23 in 3.0 mi North 5.8 mph - 0.09 in Rain Light Rain
2:53 PM 50.0 °F - 48.9 °F 96% 30.24 in 3.0 mi North 9.2 mph - 0.10 in Rain Light Rain
3:20 PM 48.2 °F - 48.2 °F 100% 30.25 in 3.0 mi North 8.1 mph - 0.02 in Rain Light Rain
3:53 PM 48.9 °F - 46.9 °F 93% 30.26 in 9.0 mi NNW 12.7 mph - 0.03 in Rain Light Rain
4:05 PM 48.2 °F - 46.4 °F 93% 30.26 in 10.0 mi North 8.1 mph - 0.00 in   Overcast
4:16 PM 48.2 °F - 46.4 °F 93% 30.26 in 10.0 mi NNW 10.4 mph - 0.00 in   Overcast
4:26 PM 48.2 °F - 44.6 °F 87% 30.26 in 10.0 mi NNW 6.9 mph - 0.00 in   Overcast
4:53 PM 46.9 °F - 45.0 °F 93% 30.28 in 10.0 mi NNW 12.7 mph - 0.00 in   Overcast
5:25 PM 46.4 °F 41.9 °F 44.6 °F 93% 30.27 in 10.0 mi NNW 9.2 mph - N/A   Overcast
5:33 PM 46.4 °F 42.4 °F 44.6 °F 93% 30.27 in 10.0 mi North 8.1 mph - N/A   Overcast
5:42 PM 46.4 °F 42.4 °F 46.4 °F 100% 30.28 in 10.0 mi NNW 8.1 mph - N/A   Overcast
5:53 PM 46.9 °F - 45.0 °F 93% 30.29 in 10.0 mi NNW 10.4 mph - N/A   Overcast
6:32 PM 46.4 °F 39.5 °F 44.6 °F 93% 30.31 in 10.0 mi North 17.3 mph 21.9 mph 0.01 in Rain Light Rain
6:44 PM 44.6 °F 38.1 °F 41.0 °F 87% 30.32 in 6.0 mi North 13.8 mph - 0.04 in Rain Heavy Rain
6:53 PM 43.0 °F 36.8 °F 41.0 °F 93% 30.32 in 7.0 mi North 11.5 mph 20.7 mph 0.06 in Rain Rain
7:28 PM 42.8 °F 36.6 °F 41.0 °F 93% 30.30 in 10.0 mi North 11.5 mph 21.9 mph 0.00 in Rain Light Rain
7:53 PM 43.0 °F 37.2 °F 41.0 °F 93% 30.32 in 10.0 mi North 10.4 mph - 0.01 in Rain Light Rain
8:10 PM 42.8 °F 36.2 °F 41.0 °F 93% 30.34 in 10.0 mi North 12.7 mph - 0.02 in Rain Light Rain
8:38 PM 44.6 °F 38.8 °F 39.2 °F 81% 30.34 in 10.0 mi North 11.5 mph 23.0 mph 0.02 in   Overcast
8:53 PM 44.1 °F 36.8 °F 39.9 °F 85% 30.35 in 10.0 mi North 16.1 mph 20.7 mph 0.02 in   Overcast
9:53 PM 44.1 °F 37.1 °F 36.0 °F 73% 30.36 in 10.0 mi North 15.0 mph 23.0 mph 0.00 in   Overcast
10:53 PM 42.1 °F 34.5 °F 36.0 °F 79% 30.36 in 10.0 mi North 15.0 mph 23.0 mph 0.00 in Rain Light Rain
11:15 PM 42.8 °F 35.8 °F 37.4 °F 81% 30.36 in 10.0 mi North 13.8 mph 19.6 mph 0.01 in Rain Light Rain
11:53 PM 41.0 °F 33.5 °F 37.9 °F 89% 30.38 in 10.0 mi North 13.8 mph - 0.03 in Rain Light Rain